Time;durP1;ratioP1;P1;durP2;ratioP2;P2;SDS_P1;SDS_P2;PMS_P1;PMS_P2;Temp;Humidity;BMP_temperature;BMP_pressure;BME280_temperature;BME280_humidity;BME280_pressure;Samples;Min_cycle;Max_cycle;Signal;HPM_P1;HPM_P2
2024/03/01 00:35:22;;;;;;;33.35;17.65;;;6.10;99.90;;;;;;5085999;28;20535;-88
2024/03/01 00:37:48;;;;;;;36.10;18.33;;;;;;;;;;5086543;28;20032;-87
2024/03/01 00:40:14;;;;;;;37.75;18.95;;;6.00;99.90;;;;;;5069595;28;20028;-86
2024/03/01 00:42:41;;;;;;;32.90;17.50;;;;;;;;;;5085200;28;20056;-86
2024/03/01 00:45:07;;;;;;;36.03;18.42;;;6.80;99.90;;;;;;5068932;28;20095;-86
2024/03/01 00:47:33;;;;;;;33.20;17.40;;;;;;;;;;5085843;28;20452;-87
2024/03/01 00:49:59;;;;;;;37.08;17.90;;;;;;;;;;5086066;28;20029;-87
2024/03/01 00:52:25;;;;;;;31.88;17.42;;;;;;;;;;5067576;28;20099;-88
2024/03/01 00:54:54;;;;;;;32.05;17.80;;;6.30;99.90;;;;;;5068748;28;20064;-85
2024/03/01 00:57:20;;;;;;;33.80;17.65;;;6.30;99.90;;;;;;5085774;28;20025;-83
2024/03/01 00:59:46;;;;;;;32.67;17.50;;;7.10;99.90;;;;;;5084743;28;20031;-85
2024/03/01 01:02:12;;;;;;;30.15;15.95;;;6.40;99.90;;;;;;5087105;28;20000;-87
2024/03/01 05:32:19;;;;;;;20.95;11.45;;;7.00;99.90;;;;;;5063762;28;20051;-88
2024/03/01 05:34:45;;;;;;;19.65;10.40;;;9.20;99.90;;;;;;5069777;28;20100;-87
2024/03/01 05:37:10;;;;;;;19.60;10.38;;;10.30;99.90;;;;;;5050824;28;20085;-88
2024/03/01 05:39:37;;;;;;;16.90;9.98;;;;;;;;;;5050236;28;20031;-87
2024/03/01 05:42:06;;;;;;;22.00;11.30;;;;;;;;;;5049768;28;20017;-87
2024/03/01 05:44:34;;;;;;;19.95;10.63;;;7.00;99.90;;;;;;5064733;28;20383;-86
2024/03/01 05:47:00;;;;;;;21.75;11.23;;;;;;;;;;5052582;28;20085;-87
2024/03/01 05:49:26;;;;;;;19.08;11.15;;;7.00;99.90;;;;;;5047841;28;20021;-87
2024/03/01 05:51:52;;;;;;;22.85;11.63;;;;;;;;;;5053983;28;20009;-89
2024/03/01 05:54:19;;;;;;;21.02;11.18;;;7.10;99.90;;;;;;5062317;28;20017;-86
2024/03/01 05:56:45;;;;;;;22.95;11.07;;;7.00;99.90;;;;;;5041021;28;20025;-88
2024/03/01 05:59:12;;;;;;;20.13;11.23;;;;;;;;;;5045088;28;20036;-87
2024/03/01 06:01:44;;;;;;;18.30;10.98;;;7.20;99.90;;;;;;5042733;28;20077;-86
2024/03/01 06:04:10;;;;;;;17.65;10.75;;;;;;;;;;5039997;28;21215;-87
2024/03/01 06:06:36;;;;;;;18.50;10.48;;;;;;;;;;5041532;28;20026;-88
2024/03/01 06:09:05;;;;;;;20.42;10.93;;;;;;;;;;5041674;28;20041;-88
2024/03/01 06:11:31;;;;;;;18.88;10.10;;;;;;;;;;5068086;28;20035;-87
2024/03/01 06:13:57;;;;;;;18.67;10.77;;;;;;;;;;5049375;28;20104;-88
2024/03/01 06:16:23;;;;;;;18.42;10.57;;;;;;;;;;5031821;28;20129;-88
2024/03/01 06:18:48;;;;;;;18.35;10.70;;;7.20;99.90;;;;;;5041258;28;20557;-85
2024/03/01 06:21:23;;;;;;;21.40;11.05;;;9.90;99.90;;;;;;5059295;28;20117;-85
2024/03/01 06:23:52;;;;;;;17.15;9.68;;;7.30;99.90;;;;;;5036903;28;20143;-87
2024/03/01 06:26:17;;;;;;;18.90;10.10;;;7.20;99.90;;;;;;5049284;28;20017;-88
2024/03/01 06:28:43;;;;;;;18.77;10.57;;;;;;;;;;5052504;28;20036;-86
2024/03/01 06:31:10;;;;;;;19.35;10.15;;;7.30;99.90;;;;;;5037618;28;20908;-86
2024/03/01 06:33:36;;;;;;;19.05;10.80;;;;;;;;;;5046040;28;20051;-88
2024/03/01 06:36:02;;;;;;;18.38;9.88;;;7.30;99.90;;;;;;5052564;28;20010;-86
2024/03/01 06:38:28;;;;;;;18.15;9.80;;;;;;;;;;5034504;28;20080;-87
2024/03/01 06:40:54;;;;;;;18.55;9.82;;;;;;;;;;5039677;28;20056;-88
2024/03/01 06:43:20;;;;;;;18.13;9.23;;;7.40;99.90;;;;;;5047910;28;20029;-87
2024/03/01 06:45:45;;;;;;;21.50;10.77;;;8.90;99.90;;;;;;5062322;28;20024;-88
2024/03/01 06:48:11;;;;;;;18.45;9.98;;;7.50;99.90;;;;;;5054272;28;20053;-86
2024/03/01 06:50:37;;;;;;;16.55;9.95;;;;;;;;;;5062160;28;20025;-87
2024/03/01 06:53:04;;;;;;;18.02;10.38;;;;;;;;;;5059013;28;20033;-87
2024/03/01 06:55:30;;;;;;;17.15;9.70;;;;;;;;;;5061452;28;20029;-85
2024/03/01 06:57:57;;;;;;;17.95;9.75;;;;;;;;;;5057595;28;20056;-85
2024/03/01 07:00:23;;;;;;;22.23;9.82;;;;;;;;;;5050827;28;20348;-85
2024/03/01 07:02:49;;;;;;;17.63;9.70;;;;;;;;;;5064403;28;20040;-87
2024/03/01 07:05:15;;;;;;;21.80;10.63;;;7.50;99.90;;;;;;5057809;28;20021;-86
2024/03/01 07:07:41;;;;;;;18.42;9.65;;;;;;;;;;5044780;28;20048;-85
2024/03/01 07:10:07;;;;;;;18.42;11.07;;;;;;;;;;5041889;28;20024;-85
2024/03/01 07:12:35;;;;;;;20.67;10.23;;;;;;;;;;5053499;28;20044;-86
2024/03/01 07:15:01;;;;;;;22.50;9.77;;;;;;;;;;5044347;28;20013;-86
2024/03/01 07:17:27;;;;;;;16.55;9.35;;;;;;;;;;5036274;28;20025;-87
2024/03/01 07:19:53;;;;;;;16.45;8.73;;;;;;;;;;5060921;28;20096;-85
2024/03/01 07:22:19;;;;;;;17.55;8.88;;;;;;;;;;5039896;28;20124;-87
2024/03/01 07:24:45;;;;;;;13.27;8.52;;;;;;;;;;5045634;28;20156;-86
2024/03/01 07:27:11;;;;;;;13.75;7.72;;;;;;;;;;5046020;28;20045;-86
2024/03/01 07:29:37;;;;;;;11.50;6.78;;;;;;;;;;5060175;28;20040;-86
2024/03/01 07:32:02;;;;;;;13.93;6.72;;;7.70;99.90;;;;;;5043853;28;20118;-87
2024/03/01 07:34:28;;;;;;;11.65;5.82;;;;;;;;;;5065407;28;20048;-86
2024/03/01 07:36:54;;;;;;;11.15;4.95;;;;;;;;;;5043086;28;20028;-89
2024/03/01 07:39:21;;;;;;;8.93;4.32;;;;;;;;;;5055833;28;20038;-89
2024/03/01 07:41:47;;;;;;;4.93;2.80;;;;;;;;;;5045137;28;20051;-88
2024/03/01 07:44:12;;;;;;;6.78;2.78;;;7.80;99.90;;;;;;5045526;28;20467;-87
2024/03/01 07:46:42;;;;;;;4.50;2.00;;;;;;;;;;5052221;28;20018;-88
2024/03/01 07:49:08;;;;;;;2.72;1.40;;;7.70;99.90;;;;;;5069574;28;20037;-87
2024/03/01 07:51:34;;;;;;;2.00;1.30;;;;;;;;;;5046454;28;20040;-88
2024/03/01 07:54:00;;;;;;;3.75;1.50;;;;;;;;;;5052273;28;20027;-88
2024/03/01 07:56:27;;;;;;;3.85;1.40;;;;;;;;;;5048920;28;20033;-89
2024/03/01 07:59:03;;;;;;;4.15;1.40;;;7.70;99.90;;;;;;5051786;28;20040;-87
2024/03/01 08:01:30;;;;;;;2.58;1.50;;;7.60;99.90;;;;;;5040184;28;20026;-84
2024/03/01 08:03:59;;;;;;;2.65;1.60;;;7.60;99.90;;;;;;5057072;28;20025;-88
2024/03/01 08:06:25;;;;;;;2.50;1.65;;;9.70;99.90;;;;;;5047095;28;20033;-84
2024/03/01 08:08:53;;;;;;;2.95;1.67;;;9.90;99.90;;;;;;5041417;28;20557;-88
2024/03/01 08:11:35;;;;;;;4.47;1.70;;;;;;;;;;5040019;28;20048;-85
2024/03/01 08:14:05;;;;;;;3.47;1.77;;;7.40;99.90;;;;;;5040745;28;20030;-87
2024/03/01 08:16:31;;;;;;;3.13;1.60;;;;;;;;;;5054444;28;20403;-87
2024/03/01 08:18:57;;;;;;;2.83;1.65;;;;;;;;;;5059929;28;20029;-86
2024/03/01 08:21:23;;;;;;;3.85;1.95;;;;;;;;;;5063988;28;20056;-84
2024/03/01 08:23:49;;;;;;;3.92;1.85;;;;;;;;;;5064911;28;20043;-85
2024/03/01 08:26:25;;;;;;;3.88;1.73;;;7.40;99.90;;;;;;5041480;28;20017;-87
2024/03/01 08:28:51;;;;;;;4.00;1.65;;;7.50;99.90;;;;;;5044438;28;20053;-84
2024/03/01 08:31:23;;;;;;;5.65;1.70;;;6.60;99.90;;;;;;5063969;28;20033;-83
2024/03/01 08:34:14;;;;;;;4.28;1.80;;;6.40;99.90;;;;;;5042354;28;20036;-86
2024/03/01 08:36:39;;;;;;;2.58;1.50;;;9.30;99.90;;;;;;5049341;28;20037;-86
2024/03/01 08:39:21;;;;;;;6.50;2.28;;;9.10;99.90;;;;;;5030622;28;20041;-87
2024/03/01 08:41:49;;;;;;;5.55;2.00;;;7.60;99.90;;;;;;5041996;28;20028;-87
2024/03/01 08:44:59;;;;;;;5.20;2.33;;;10.40;99.90;;;;;;5039575;28;20599;-86
2024/03/01 08:47:30;;;;;;;4.13;2.13;;;7.70;99.90;;;;;;5032000;28;20033;-89
2024/03/01 08:50:33;;;;;;;3.10;2.10;;;7.70;99.90;;;;;;5055359;28;20359;-86
2024/03/01 08:53:00;;;;;;;3.28;2.20;;;7.70;99.90;;;;;;5048777;28;20052;-88
2024/03/01 08:55:26;;;;;;;5.28;2.13;;;7.50;99.90;;;;;;5056561;28;20063;-85
2024/03/01 08:57:58;;;;;;;3.97;1.95;;;8.70;99.90;;;;;;5058487;28;20040;-87
2024/03/01 09:00:27;;;;;;;4.20;2.13;;;7.70;99.90;;;;;;5056642;28;20021;-87
2024/03/01 09:02:53;;;;;;;5.20;2.60;;;7.80;99.90;;;;;;5045275;28;20045;-87
2024/03/01 09:05:22;;;;;;;5.47;3.03;;;7.80;99.90;;;;;;5056166;28;20037;-84
2024/03/01 09:07:49;;;;;;;6.18;2.33;;;9.30;99.90;;;;;;5048295;28;20029;-86
2024/03/01 09:10:27;;;;;;;4.57;2.40;;;10.00;99.90;;;;;;5060521;28;20027;-88
2024/03/01 09:12:53;;;;;;;5.70;2.65;;;9.90;99.90;;;;;;5043881;28;20063;-87
2024/03/01 09:15:24;;;;;;;5.35;3.10;;;8.30;99.90;;;;;;5064500;28;20029;-88
2024/03/01 09:17:51;;;;;;;5.45;2.78;;;;;;;;;;5044620;28;20032;-84
2024/03/01 09:20:30;;;;;;;4.15;2.63;;;8.20;99.90;;;;;;5054787;28;20096;-86
2024/03/01 09:22:58;;;;;;;4.25;2.60;;;8.20;99.90;;;;;;5047737;28;20055;-87
2024/03/01 09:25:43;;;;;;;8.35;3.72;;;8.20;99.90;;;;;;5051101;28;20033;-87
2024/03/01 09:28:11;;;;;;;4.78;2.90;;;8.20;99.90;;;;;;5048189;28;20013;-88
2024/03/01 09:30:37;;;;;;;4.85;3.15;;;8.30;99.90;;;;;;5063736;28;20033;-88
2024/03/01 09:33:03;;;;;;;7.25;3.30;;;8.40;99.90;;;;;;5058211;28;20030;-86
2024/03/01 09:35:30;;;;;;;6.25;2.80;;;8.40;99.90;;;;;;5045098;28;20035;-87
2024/03/01 09:37:56;;;;;;;6.65;2.90;;;;;;;;;;5057847;28;20029;-85
2024/03/01 09:40:57;;;;;;;5.25;2.97;;;8.70;99.90;;;;;;5041817;28;20060;-86
2024/03/01 09:43:23;;;;;;;4.57;3.05;;;;;;;;;;5041499;28;20037;-83
2024/03/01 09:46:08;;;;;;;4.78;3.05;;;8.80;99.90;;;;;;5058520;28;20033;-85
2024/03/01 09:48:55;;;;;;;8.18;2.85;;;8.90;99.90;;;;;;5047761;28;20053;-84
2024/03/01 09:51:43;;;;;;;5.53;2.72;;;8.90;99.90;;;;;;5044887;28;20032;-84
2024/03/01 09:54:27;;;;;;;4.65;2.30;;;8.90;99.90;;;;;;5061682;28;20029;-88
2024/03/01 09:57:13;;;;;;;3.80;2.13;;;9.00;99.90;;;;;;5062878;28;20081;-87
2024/03/01 09:59:53;;;;;;;3.97;2.42;;;9.00;99.90;;;;;;5038514;28;20040;-88
2024/03/01 10:02:47;;;;;;;4.45;2.60;;;8.90;99.90;;;;;;5039250;28;20258;-84
2024/03/01 10:05:38;;;;;;;5.90;2.40;;;8.90;99.90;;;;;;5065107;28;20028;-87
2024/03/01 10:08:04;;;;;;;3.15;1.90;;;;;;;;;;5065906;28;20032;-88
2024/03/01 10:11:12;;;;;;;5.80;1.70;;;9.00;99.90;;;;;;5061619;28;20021;-89
2024/03/01 10:14:09;;;;;;;3.42;1.80;;;9.00;99.90;;;;;;5040428;28;20013;-88
2024/03/01 10:17:05;;;;;;;2.92;1.70;;;9.10;99.90;;;;;;5056242;28;20053;-87
2024/03/01 10:19:46;;;;;;;5.10;1.88;;;9.20;99.90;;;;;;5060507;28;20017;-89
2024/03/01 10:22:29;;;;;;;2.30;1.33;;;9.30;99.90;;;;;;5058518;28;20023;-87
2024/03/01 10:25:17;;;;;;;3.72;1.50;;;9.30;99.90;;;;;;5054618;28;20040;-89
2024/03/01 10:27:50;;;;;;;2.58;1.40;;;9.20;99.90;;;;;;5059760;28;20084;-85
2024/03/01 10:30:19;;;;;;;2.38;1.25;;;9.20;99.90;;;;;;5058365;28;20032;-84
2024/03/01 10:33:18;;;;;;;4.28;1.80;;;9.20;99.90;;;;;;5059738;28;20028;-87
2024/03/01 10:36:00;;;;;;;2.38;1.50;;;9.30;99.90;;;;;;5043215;28;20028;-85
2024/03/01 10:38:44;;;;;;;2.95;1.42;;;;;;;;;;5034799;28;20064;-88
2024/03/01 10:41:58;;;;;;;3.53;1.65;;;9.30;99.90;;;;;;5059632;28;20029;-85
2024/03/01 10:44:42;;;;;;;3.17;1.85;;;9.30;99.90;;;;;;5051988;28;20048;-84
2024/03/01 10:47:21;;;;;;;4.65;1.63;;;9.40;99.90;;;;;;5050729;28;20115;-86
2024/03/01 10:50:07;;;;;;;2.40;1.40;;;9.40;99.90;;;;;;5054364;28;20074;-85
2024/03/01 10:52:58;;;;;;;2.83;1.90;;;9.40;99.90;;;;;;5034979;28;20021;-85
2024/03/01 10:55:24;;;;;;;;;;;9.40;99.90;;;;;;5049390;28;20044;-84
2024/03/01 10:58:15;;;;;;;5.43;1.77;;;9.40;99.90;;;;;;5059217;28;20363;-84
2024/03/01 11:01:08;;;;;;;3.28;1.48;;;9.40;99.90;;;;;;5027263;28;20067;-83
2024/03/01 11:03:44;;;;;;;3.67;1.38;;;9.50;99.90;;;;;;5063211;28;20096;-85
2024/03/01 11:06:28;;;;;;;2.80;1.20;;;9.30;99.90;;;;;;5038570;28;20079;-82
2024/03/01 11:09:09;;;;;;;2.05;1.20;;;9.20;99.90;;;;;;5058532;28;20032;-88
2024/03/01 11:11:46;;;;;;;4.40;1.42;;;9.30;99.90;;;;;;5054350;28;20013;-86
2024/03/01 11:14:17;;;;;;;2.80;1.52;;;9.30;99.90;;;;;;5052194;28;20037;-88
2024/03/01 11:16:47;;;;;;;3.65;1.20;;;9.20;99.90;;;;;;5046633;28;20032;-89
2024/03/01 11:19:16;;;;;;;2.22;0.82;;;;;;;;;;5062914;28;20010;-85
2024/03/01 11:21:47;;;;;;;3.05;1.50;;;;;;;;;;5028392;28;20036;-88
2024/03/01 11:24:19;;;;;;;1.45;0.85;;;9.50;99.90;;;;;;5066511;28;20045;-88
2024/03/01 11:26:49;;;;;;;1.55;1.00;;;10.40;99.90;;;;;;5052171;28;20031;-85
2024/03/01 11:29:20;;;;;;;1.67;0.90;;;9.30;99.90;;;;;;5039942;28;20024;-88
2024/03/01 11:31:52;;;;;;;3.63;1.02;;;9.40;99.90;;;;;;5067222;28;20291;-85
2024/03/01 11:34:32;;;;;;;1.85;0.90;;;9.30;99.90;;;;;;5066888;28;20279;-86
2024/03/01 11:37:27;;;;;;;1.23;0.95;;;9.40;99.90;;;;;;5052883;28;20041;-88
2024/03/01 11:40:03;;;;;;;3.13;0.90;;;;;;;;;;5049433;28;20123;-84
2024/03/01 11:42:38;;;;;;;2.30;1.55;;;;;;;;;;5061954;28;20171;-85
2024/03/01 11:45:25;;;;;;;2.65;1.05;;;9.50;99.90;;;;;;5046230;28;20029;-87
2024/03/01 11:48:06;;;;;;;3.15;1.30;;;;;;;;;;5048308;28;20023;-84
2024/03/01 11:50:32;;;;;;;3.47;1.30;;;;;;;;;;5048004;28;20028;-85
2024/03/01 11:53:17;;;;;;;3.58;1.20;;;9.70;99.90;;;;;;5045492;28;20131;-88
2024/03/01 11:55:49;;;;;;;2.38;0.95;;;;;;;;;;5048799;28;20224;-87
2024/03/01 11:58:36;;;;;;;2.03;1.00;;;9.60;99.90;;;;;;5046556;28;20093;-87
2024/03/01 12:01:18;;;;;;;3.17;1.02;;;;;;;;;;5067000;28;20080;-88
2024/03/01 12:04:15;;;;;;;2.55;1.00;;;9.60;99.90;;;;;;5062877;28;20042;-84
2024/03/01 12:07:04;;;;;;;2.95;1.10;;;9.80;99.90;;;;;;5067535;28;20024;-87
2024/03/01 12:09:49;;;;;;;3.20;1.10;;;;;;;;;;5039624;28;20088;-88
2024/03/01 12:12:15;;;;;;;2.33;1.10;;;9.90;99.90;;;;;;5070529;28;20638;-84
2024/03/01 12:14:52;;;;;;;2.20;1.38;;;9.90;99.90;;;;;;5049016;28;20033;-87
2024/03/01 12:17:23;;;;;;;2.55;1.40;;;9.90;99.90;;;;;;5059063;28;20033;-84
2024/03/01 12:19:58;;;;;;;2.30;1.40;;;10.00;99.90;;;;;;5041534;28;20100;-88
2024/03/01 12:22:30;;;;;;;3.70;1.90;;;;;;;;;;5042139;28;20032;-88
2024/03/01 12:24:58;;;;;;;4.32;2.00;;;10.30;99.90;;;;;;5062646;28;20017;-84
2024/03/01 12:27:48;;;;;;;2.88;1.55;;;10.30;99.90;;;;;;5064547;28;20059;-87
2024/03/01 12:30:29;;;;;;;3.00;1.60;;;10.40;99.90;;;;;;5062803;28;20482;-85
2024/03/01 12:33:04;;;;;;;3.08;1.90;;;;;;;;;;5046421;28;20284;-86
2024/03/01 12:35:39;;;;;;;3.05;1.67;;;10.40;99.90;;;;;;5061691;28;20033;-87
2024/03/01 12:38:05;;;;;;;3.53;1.90;;;;;;;;;;5052862;28;20093;-90
2024/03/01 12:40:38;;;;;;;3.85;1.83;;;10.40;99.90;;;;;;5060035;28;20025;-89
2024/03/01 12:43:36;;;;;;;2.85;1.77;;;10.30;99.90;;;;;;5045699;28;20119;-86
2024/03/01 12:46:32;;;;;;;2.22;1.40;;;10.20;99.90;;;;;;5056789;28;20112;-85
2024/03/01 12:49:24;;;;;;;2.42;1.65;;;10.40;99.90;;;;;;5039320;28;20067;-87
2024/03/01 12:51:57;;;;;;;3.58;2.25;;;10.40;99.90;;;;;;5061244;28;20494;-86
2024/03/01 12:54:41;;;;;;;3.53;2.15;;;10.40;99.90;;;;;;5051048;28;20085;-89
2024/03/01 12:57:31;;;;;;;4.60;2.15;;;10.40;99.90;;;;;;5051818;28;20048;-88
2024/03/01 13:00:13;;;;;;;2.58;1.63;;;10.50;99.90;;;;;;5059844;28;20209;-87
2024/03/01 13:02:42;;;;;;;3.28;1.90;;;10.50;99.90;;;;;;5062446;28;20347;-86
2024/03/01 13:05:22;;;;;;;3.05;1.48;;;11.60;99.90;;;;;;5040882;28;20040;-87
2024/03/01 13:07:52;;;;;;;2.53;1.23;;;10.60;99.90;;;;;;5063424;28;20021;-84
2024/03/01 13:10:18;;;;;;;2.53;1.30;;;11.10;99.90;;;;;;5060540;28;20092;-84
2024/03/01 13:12:47;;;;;;;1.60;1.00;;;9.80;99.90;;;;;;5042094;28;20021;-83
2024/03/01 13:15:21;;;;;;;2.15;1.00;;;12.20;99.90;;;;;;5042182;28;20112;-85
2024/03/01 13:18:18;;;;;;;3.35;1.13;;;10.70;99.90;;;;;;5060238;28;20040;-87
2024/03/01 13:20:55;;;;;;;2.22;1.27;;;11.00;99.90;;;;;;5042238;28;20096;-85
2024/03/01 13:23:42;;;;;;;1.23;0.77;;;10.80;99.90;;;;;;5040061;28;20090;-84
2024/03/01 13:30:44;;;;;;;2.03;0.90;;;10.90;99.90;;;;;;4484001;28;15322870;-85
2024/03/01 13:33:50;;;;;;;1.38;0.90;;;11.00;99.90;;;;;;5013385;28;20091;-88
2024/03/01 13:36:51;;;;;;;1.00;0.70;;;11.00;99.90;;;;;;5033877;28;20510;-86
2024/03/01 13:40:20;;;;;;;1.30;0.90;;;10.90;99.90;;;;;;5033830;28;20029;-86
2024/03/01 13:43:17;;;;;;;2.80;0.93;;;10.90;99.90;;;;;;5044396;28;20485;-87
2024/03/01 13:45:48;;;;;;;1.25;0.80;;;10.80;99.90;;;;;;5017978;28;20044;-88
2024/03/01 13:48:34;;;;;;;1.20;0.77;;;10.90;99.90;;;;;;5028070;28;20381;-87
2024/03/01 13:51:21;;;;;;;2.60;0.90;;;10.90;99.90;;;;;;5035340;28;20025;-88
2024/03/01 13:53:48;;;;;;;1.17;0.73;;;11.00;99.90;;;;;;5052436;28;20041;-86
2024/03/01 13:56:45;;;;;;;1.95;0.82;;;11.00;99.90;;;;;;5061288;28;20039;-87
2024/03/01 14:03:13;;;;;;;1.17;0.88;;;11.20;99.90;;;;;;4992386;28;20033;-88
2024/03/01 14:05:57;;;;;;;1.80;0.93;;;11.20;99.90;;;;;;4984883;28;20035;-87
2024/03/01 14:15:40;;;;;;;3.45;1.00;;;11.00;99.90;;;;;;4976849;28;20038;-90
2024/03/01 14:18:17;;;;;;;3.03;1.13;;;11.00;99.90;;;;;;4978369;28;20034;-87
2024/03/01 14:24:33;;;;;;;1.42;0.90;;;11.00;99.90;;;;;;5026488;28;20040;-87
2024/03/01 14:27:57;;;;;;;3.53;1.00;;;11.10;99.90;;;;;;4994366;28;20495;-86
2024/03/01 14:31:14;;;;;;;1.95;1.00;;;11.10;99.90;;;;;;4988431;28;20073;-86
2024/03/01 14:37:28;;;;;;;1.15;0.65;;;11.10;99.90;;;;;;4989507;28;20114;-90
2024/03/01 14:40:17;;;;;;;1.55;0.90;;;11.20;99.90;;;;;;4964882;28;20023;-88
2024/03/01 14:56:26;;;;;;;1.23;0.65;;;11.20;99.90;;;;;;4946981;29;20067;-87
2024/03/01 14:59:10;;;;;;;1.13;0.70;;;11.20;99.90;;;;;;4941414;28;20430;-84
2024/03/01 15:01:46;;;;;;;2.17;0.80;;;11.10;99.90;;;;;;5027038;28;20041;-87
2024/03/01 15:08:02;;;;;;;1.63;0.90;;;11.10;99.90;;;;;;5025298;28;20036;-86
2024/03/01 15:11:18;;;;;;;2.20;1.08;;;11.00;99.90;;;;;;5038139;28;20026;-87
2024/03/01 15:14:08;;;;;;;2.65;1.08;;;11.00;99.90;;;;;;5040372;28;20033;-86
2024/03/01 15:17:13;;;;;;;2.03;1.10;;;10.90;99.90;;;;;;5033861;28;20033;-86
2024/03/01 15:19:59;;;;;;;2.08;1.25;;;10.80;99.90;;;;;;5021089;28;20064;-86
2024/03/01 15:23:31;;;;;;;3.58;1.40;;;10.60;99.90;;;;;;5039490;28;20036;-87
2024/03/01 15:26:08;;;;;;;1.83;1.10;;;10.60;99.90;;;;;;5017688;28;20039;-86
2024/03/01 15:28:40;;;;;;;2.87;1.40;;;10.50;99.90;;;;;;5043569;28;20025;-85
2024/03/01 15:31:24;;;;;;;2.70;1.20;;;10.50;99.90;;;;;;5044534;28;20080;-87
2024/03/01 15:41:28;;;;;;;2.00;1.05;;;10.60;99.90;;;;;;5000627;28;20065;-87
2024/03/01 15:48:02;;;;;;;1.63;0.90;;;10.50;99.90;;;;;;4966122;28;20070;-85
2024/03/01 15:54:32;;;;;;;1.40;0.75;;;10.60;99.90;;;;;;4985583;28;20049;-88
2024/03/01 15:57:03;;;;;;;1.48;0.90;;;10.60;99.90;;;;;;4982369;28;20033;-86
2024/03/01 16:04:04;;;;;;;2.55;1.20;;;10.60;99.90;;;;;;4979798;28;20089;-89
2024/03/01 16:07:33;;;;;;;2.35;0.90;;;10.60;99.90;;;;;;4930313;29;20065;-85
2024/03/01 16:10:24;;;;;;;1.85;0.90;;;10.60;99.90;;;;;;4956014;29;20043;-87
2024/03/01 16:13:14;;;;;;;2.03;1.00;;;10.60;99.90;;;;;;4948194;29;20049;-90
2024/03/01 16:49:42;;;;;;;2.00;1.08;;;10.30;99.90;;;;;;4998794;23;20115;-87
2024/03/01 16:53:14;;;;;;;2.42;1.20;;;10.30;99.90;;;;;;4985244;28;20030;-90
2024/03/01 16:55:56;;;;;;;4.40;1.60;;;10.40;99.90;;;;;;4969048;28;20043;-87
2024/03/01 16:58:45;;;;;;;4.20;1.75;;;9.60;99.90;;;;;;4928903;28;20041;-89
2024/03/01 17:01:31;;;;;;;2.83;1.40;;;10.20;99.90;;;;;;4979312;28;20058;-87
2024/03/01 17:04:31;;;;;;;3.90;1.35;;;11.50;99.90;;;;;;4964679;28;20030;-89
2024/03/01 17:07:00;;;;;;;3.47;1.30;;;10.80;99.90;;;;;;4979951;28;20138;-88
2024/03/01 17:09:40;;;;;;;4.85;2.22;;;10.40;99.90;;;;;;4960394;28;20030;-86
2024/03/01 17:12:06;;;;;;;5.17;2.63;;;9.40;99.90;;;;;;4970493;28;20026;-87
2024/03/01 17:14:34;;;;;;;3.85;1.60;;;10.50;99.90;;;;;;4980282;28;20057;-89
2024/03/01 17:16:59;;;;;;;4.30;1.90;;;10.20;99.90;;;;;;4976179;28;20022;-89
2024/03/01 17:19:28;;;;;;;8.43;4.20;;;10.10;99.90;;;;;;4988399;28;20023;-90
2024/03/01 17:22:01;;;;;;;4.00;1.65;;;10.90;99.90;;;;;;4974352;28;20038;-88
2024/03/01 17:24:27;;;;;;;4.93;2.67;;;10.20;99.90;;;;;;4987237;28;20038;-89
2024/03/01 17:26:53;;;;;;;5.28;1.90;;;9.90;99.90;;;;;;4990332;28;20081;-88
2024/03/01 17:29:19;;;;;;;3.28;1.83;;;11.30;99.90;;;;;;4986460;28;20027;-88
2024/03/01 17:31:45;;;;;;;4.35;1.70;;;10.10;99.90;;;;;;4984888;28;20062;-89
2024/03/01 17:34:10;;;;;;;4.45;1.75;;;10.90;99.90;;;;;;4998374;28;20067;-89
2024/03/01 17:36:36;;;;;;;2.83;1.52;;;11.50;99.90;;;;;;4975104;28;20018;-88
2024/03/01 17:39:02;;;;;;;2.55;1.00;;;;;;;;;;4975664;28;20034;-89
2024/03/01 17:41:28;;;;;;;3.85;2.08;;;9.80;99.90;;;;;;4973040;28;20508;-87
2024/03/01 17:43:53;;;;;;;3.42;1.50;;;9.80;99.90;;;;;;4985354;28;20343;-89
2024/03/01 17:46:19;;;;;;;3.90;2.03;;;9.90;99.90;;;;;;4972149;28;20130;-87
2024/03/01 17:48:45;;;;;;;4.63;1.60;;;10.10;99.90;;;;;;4987395;28;20038;-90
2024/03/01 17:51:11;;;;;;;3.45;1.63;;;;;;;;;;4984380;28;20050;-89
2024/03/01 17:53:36;;;;;;;5.63;2.42;;;9.70;99.90;;;;;;4987543;28;20101;-89
2024/03/01 17:56:07;;;;;;;4.40;2.63;;;9.70;99.90;;;;;;4986168;28;20035;-89
2024/03/01 17:58:32;;;;;;;3.78;2.15;;;9.60;99.90;;;;;;4969633;28;20041;-89
2024/03/01 18:00:58;;;;;;;4.80;2.00;;;10.60;99.90;;;;;;4983294;28;20035;-90
2024/03/01 18:03:25;;;;;;;6.15;2.22;;;11.50;99.90;;;;;;4987442;28;20031;-87
2024/03/01 18:05:56;;;;;;;5.65;1.77;;;10.10;99.90;;;;;;4987983;28;20042;-89
2024/03/01 18:08:22;;;;;;;3.70;1.90;;;9.90;99.90;;;;;;4983968;28;20022;-91
2024/03/01 18:10:48;;;;;;;6.55;2.75;;;9.50;99.90;;;;;;4966381;28;20030;-87
2024/03/01 18:13:14;;;;;;;3.75;1.80;;;9.40;99.90;;;;;;4986567;28;20015;-88
2024/03/01 18:15:39;;;;;;;3.90;1.80;;;10.50;99.90;;;;;;4955393;28;20027;-88
2024/03/01 18:18:05;;;;;;;4.32;2.40;;;9.40;99.90;;;;;;4975657;28;20043;-87
2024/03/01 18:20:31;;;;;;;5.28;2.35;;;9.30;99.90;;;;;;4991657;28;20042;-88
2024/03/01 18:22:57;;;;;;;4.80;2.03;;;10.10;99.90;;;;;;4990441;28;20019;-91
2024/03/01 18:25:22;;;;;;;4.50;2.00;;;9.30;99.90;;;;;;4980445;28;20019;-89
2024/03/01 18:27:48;;;;;;;7.18;2.70;;;10.50;99.90;;;;;;4996373;28;20107;-88
2024/03/01 18:30:15;;;;;;;5.20;1.92;;;9.20;99.90;;;;;;4979193;28;20035;-89
2024/03/01 18:32:40;;;;;;;5.18;1.90;;;9.20;99.90;;;;;;4995615;28;20023;-89
2024/03/01 18:35:06;;;;;;;5.03;1.92;;;8.10;99.90;;;;;;4975749;28;20023;-90
2024/03/01 18:37:32;;;;;;;4.57;2.30;;;9.10;99.90;;;;;;4996262;28;20090;-89
2024/03/01 18:39:58;;;;;;;4.80;2.45;;;9.50;99.90;;;;;;4993200;28;20015;-90
2024/03/01 18:42:23;;;;;;;4.35;1.88;;;9.60;99.90;;;;;;4995526;28;20083;-88
2024/03/01 18:44:49;;;;;;;4.75;2.13;;;10.80;99.90;;;;;;4978618;28;20065;-90
2024/03/01 18:47:19;;;;;;;5.13;2.20;;;8.80;99.90;;;;;;4977433;28;20070;-89
2024/03/01 18:49:45;;;;;;;6.60;2.87;;;10.30;99.90;;;;;;4988720;28;20042;-89
2024/03/01 18:52:11;;;;;;;6.28;2.13;;;;;;;;;;4993059;28;20298;-87
2024/03/01 18:54:36;;;;;;;3.70;2.08;;;9.10;99.90;;;;;;4990802;28;20015;-89
2024/03/01 18:57:02;;;;;;;6.55;2.15;;;9.50;99.90;;;;;;4995534;28;20034;-87
2024/03/01 18:59:28;;;;;;;4.80;2.05;;;8.70;99.90;;;;;;4980601;28;20038;-88
2024/03/01 19:01:54;;;;;;;6.30;2.20;;;10.30;99.90;;;;;;4983961;28;20034;-91
2024/03/01 19:04:20;;;;;;;4.68;2.42;;;11.00;99.90;;;;;;4992221;28;20022;-88
2024/03/01 19:06:46;;;;;;;4.22;2.38;;;9.20;99.90;;;;;;4997451;28;20037;-89
2024/03/01 19:09:11;;;;;;;6.18;2.50;;;10.50;99.90;;;;;;4979262;28;20011;-89
2024/03/01 19:11:37;;;;;;;4.47;2.20;;;9.20;99.90;;;;;;4998024;28;20015;-89
2024/03/01 19:14:03;;;;;;;4.47;2.38;;;8.90;99.90;;;;;;4981962;28;20023;-90
2024/03/01 19:16:31;;;;;;;4.97;2.40;;;;;;;;;;4974376;28;20038;-91
2024/03/01 19:18:59;;;;;;;6.47;2.70;;;8.90;99.90;;;;;;4990770;28;20035;-88
2024/03/01 19:21:25;;;;;;;6.70;2.83;;;8.80;99.90;;;;;;4973788;28;20027;-88
2024/03/01 19:23:51;;;;;;;5.20;2.53;;;9.60;99.90;;;;;;4993027;28;20035;-88
2024/03/01 19:26:18;;;;;;;5.05;2.20;;;8.70;99.90;;;;;;4977908;28;20101;-89
2024/03/01 19:28:44;;;;;;;5.10;2.47;;;9.90;99.90;;;;;;4996696;28;20038;-89
2024/03/01 19:31:10;;;;;;;6.57;2.78;;;9.80;99.90;;;;;;4992760;28;20019;-89
2024/03/01 19:33:35;;;;;;;6.15;3.35;;;10.50;99.90;;;;;;4992569;28;20050;-89
2024/03/01 19:36:01;;;;;;;4.30;2.30;;;8.40;99.90;;;;;;4977030;28;20046;-88
2024/03/01 19:38:27;;;;;;;4.28;2.58;;;7.50;99.90;;;;;;4976216;28;20018;-88
2024/03/01 19:40:53;;;;;;;6.63;3.17;;;8.70;99.90;;;;;;4998111;28;20037;-87
2024/03/01 19:43:21;;;;;;;13.80;5.07;;;8.80;99.90;;;;;;4978986;28;20023;-88
2024/03/01 19:45:46;;;;;;;6.90;2.95;;;9.30;99.90;;;;;;4972218;28;20037;-89
2024/03/01 19:48:14;;;;;;;7.88;2.67;;;9.60;99.90;;;;;;4976399;28;20030;-88
2024/03/01 19:50:40;;;;;;;3.78;2.20;;;10.90;99.90;;;;;;4993564;28;20011;-89
2024/03/01 19:53:06;;;;;;;4.55;2.72;;;8.80;99.90;;;;;;4992325;28;20015;-90
2024/03/01 19:55:33;;;;;;;5.47;2.63;;;;;;;;;;4991417;28;20031;-89
2024/03/01 19:57:59;;;;;;;5.60;2.17;;;8.80;99.90;;;;;;4992766;28;20030;-89
2024/03/01 20:00:25;;;;;;;3.40;2.25;;;8.80;99.90;;;;;;4995645;28;20027;-87
2024/03/01 20:02:51;;;;;;;3.90;2.20;;;11.20;99.90;;;;;;4991974;28;20065;-89
2024/03/01 20:05:16;;;;;;;6.18;2.97;;;8.70;99.90;;;;;;4988791;28;20026;-88
2024/03/01 20:07:42;;;;;;;5.80;3.13;;;;;;;;;;4994490;28;20358;-89
2024/03/01 20:10:09;;;;;;;6.20;2.35;;;;;;;;;;4998627;28;20049;-88
2024/03/01 20:12:35;;;;;;;6.07;3.03;;;8.70;99.90;;;;;;4983398;28;20037;-88
2024/03/01 20:15:03;;;;;;;5.43;2.70;;;;;;;;;;4979475;28;20023;-90
2024/03/01 20:17:28;;;;;;;5.13;2.80;;;8.70;99.90;;;;;;4992798;28;20030;-89
2024/03/01 20:19:54;;;;;;;6.55;3.55;;;;;;;;;;4976661;28;20029;-88
2024/03/01 20:22:20;;;;;;;6.65;3.25;;;;;;;;;;4990423;28;20010;-88
2024/03/01 20:24:46;;;;;;;4.65;2.80;;;;;;;;;;4994106;28;20026;-88